Time;durP1;ratioP1;P1;durP2;ratioP2;P2;SDS_P1;SDS_P2;PMS_P1;PMS_P2;Temp;Humidity;BMP_temperature;BMP_pressure;BME280_temperature;BME280_humidity;BME280_pressure;Samples;Min_cycle;Max_cycle;Signal;HPM_P1;HPM_P2
2022/09/08 00:02:48;;;;;;;15.73;14.50;;;17.50;99.90;;;;;;5089274;28;20501;-73
2022/09/08 00:05:45;;;;;;;16.30;15.10;;;17.40;99.90;;;;;;5092706;28;20444;-73
2022/09/08 00:09:09;;;;;;;;;;;;;;;;;;;;;
2022/09/08 00:12:42;;;;;;;16.67;15.37;;;17.40;99.90;;;;;;5085465;28;20546;-73
2022/09/08 00:16:01;;;;;;;15.57;14.43;;;17.40;99.90;;;;;;5093060;28;20448;-73
2022/09/08 00:19:23;;;;;;;16.93;15.60;;;17.30;99.90;;;;;;5067499;28;20796;-73
2022/09/08 00:25:35;;;;;;;17.27;15.77;;;17.30;99.90;;;;;;5097581;28;20478;-73
2022/09/08 00:28:37;;;;;;;16.30;15.00;;;17.30;99.90;;;;;;5094827;28;20452;-73
2022/09/08 00:32:10;;;;;;;17.50;16.00;;;17.30;99.90;;;;;;5096171;28;20476;-74
2022/09/08 00:35:18;;;;;;;16.43;15.23;;;17.20;99.90;;;;;;5093722;28;20483;-73
2022/09/08 00:38:36;;;;;;;16.87;15.50;;;17.20;99.90;;;;;;5097074;28;20468;-73
2022/09/08 00:41:47;;;;;;;17.10;15.80;;;17.20;99.90;;;;;;5095989;28;20491;-73
2022/09/08 00:44:51;;;;;;;16.97;15.67;;;17.20;99.90;;;;;;5095024;28;20464;-73
2022/09/08 00:48:09;;;;;;;;;;;;;;;;;;;;;
2022/09/08 00:51:24;;;;;;;;;;;;;;;;;;;;;
2022/09/08 00:54:17;;;;;;;16.60;15.30;;;17.20;99.90;;;;;;5098250;28;20468;-73
2022/09/08 00:57:30;;;;;;;16.90;15.40;;;17.10;99.90;;;;;;5091367;28;20469;-73
2022/09/08 01:00:43;;;;;;;17.10;15.70;;;17.00;99.90;;;;;;5070778;28;20466;-73
2022/09/08 01:03:58;;;;;;;16.90;15.40;;;17.00;99.90;;;;;;5088374;28;20507;-72
2022/09/08 01:15:04;;;;;;;17.57;16.27;;;16.90;99.90;;;;;;5006722;28;20507;-73
2022/09/08 01:18:23;;;;;;;17.63;16.17;;;16.80;99.90;;;;;;5008459;28;20483;-72
2022/09/08 01:21:53;;;;;;;17.87;16.27;;;16.80;99.90;;;;;;5097215;28;20528;-73
2022/09/08 01:28:33;;;;;;;17.27;15.97;;;16.80;99.90;;;;;;5084825;28;20464;-73
2022/09/08 01:31:40;;;;;;;18.63;17.03;;;16.70;99.90;;;;;;5086375;28;20477;-73
2022/09/08 01:34:45;;;;;;;18.37;16.87;;;16.70;99.90;;;;;;5091207;28;20443;-73
2022/09/08 01:37:56;;;;;;;18.00;16.50;;;16.70;99.90;;;;;;5094323;28;20501;-73
2022/09/08 01:44:50;;;;;;;;;;;;;;;;;;;;;
2022/09/08 01:51:54;;;;;;;17.73;16.30;;;16.60;99.90;;;;;;5089665;28;20483;-73
2022/09/08 01:55:22;;;;;;;17.33;16.07;;;16.60;99.90;;;;;;5090612;28;20830;-73
2022/09/08 01:58:25;;;;;;;18.13;16.73;;;16.60;99.90;;;;;;5087256;28;20475;-73
2022/09/08 02:01:25;;;;;;;17.20;15.90;;;16.50;99.90;;;;;;5087313;28;20506;-73
2022/09/08 02:04:29;;;;;;;16.67;15.37;;;16.50;99.90;;;;;;5081285;28;20996;-73
2022/09/08 02:07:19;;;;;;;17.97;16.40;;;16.50;99.90;;;;;;5085511;28;20839;-73
2022/09/08 02:10:17;;;;;;;17.13;15.73;;;16.50;99.90;;;;;;5093016;28;20451;-74
2022/09/08 02:16:37;;;;;;;17.23;15.83;;;16.40;99.90;;;;;;5097130;28;20448;-73
2022/09/08 02:19:38;;;;;;;16.43;15.13;;;16.40;99.90;;;;;;5094177;28;20480;-74
2022/09/08 02:22:41;;;;;;;16.20;14.80;;;16.30;99.90;;;;;;5092278;28;20480;-73
2022/09/08 02:25:45;;;;;;;17.90;16.50;;;16.30;99.90;;;;;;5092603;28;20450;-73
2022/09/08 02:28:48;;;;;;;16.87;15.40;;;16.30;99.90;;;;;;5094689;28;20535;-73
2022/09/08 02:32:07;;;;;;;16.20;14.90;;;16.30;99.90;;;;;;5087094;28;20476;-73
2022/09/08 02:35:13;;;;;;;17.43;15.83;;;16.20;99.90;;;;;;5096820;28;20460;-72
2022/09/08 02:41:48;;;;;;;16.43;15.00;;;16.20;99.90;;;;;;5093918;28;20463;-73
2022/09/08 02:44:53;;;;;;;16.20;14.90;;;16.20;99.90;;;;;;5099333;28;20456;-73
2022/09/08 02:47:58;;;;;;;15.77;14.57;;;16.20;99.90;;;;;;5099135;28;20444;-73
2022/09/08 02:51:07;;;;;;;16.30;15.00;;;16.10;99.90;;;;;;5094139;28;20452;-73
2022/09/08 02:54:15;;;;;;;16.10;14.80;;;16.10;99.90;;;;;;5094544;28;20464;-73
2022/09/08 02:57:29;;;;;;;17.67;16.37;;;16.10;99.90;;;;;;5094478;28;20451;-73
2022/09/08 03:03:48;;;;;;;15.30;14.10;;;16.10;99.90;;;;;;5094923;28;20483;-73
2022/09/08 03:10:10;;;;;;;15.83;14.43;;;16.10;99.90;;;;;;5092119;28;20457;-73
2022/09/08 03:13:26;;;;;;;15.73;14.40;;;16.00;99.90;;;;;;5098947;28;20467;-73
2022/09/08 03:16:20;;;;;;;14.87;13.70;;;16.00;99.90;;;;;;5100342;28;20441;-73
2022/09/08 03:20:02;;;;;;;14.93;13.73;;;15.90;99.90;;;;;;5097319;28;20990;-73
2022/09/08 03:23:32;;;;;;;;;;;;;;;;;;;;;
2022/09/08 03:26:34;;;;;;;16.37;15.07;;;15.90;99.90;;;;;;5094844;28;20875;-73
2022/09/08 03:29:43;;;;;;;15.60;14.33;;;15.90;99.90;;;;;;5096221;28;20543;-73
2022/09/08 03:33:01;;;;;;;15.30;14.03;;;15.80;99.90;;;;;;5093014;28;20551;-73
2022/09/08 03:36:05;;;;;;;15.63;14.43;;;15.80;99.90;;;;;;5096988;28;20448;-73
2022/09/08 03:39:13;;;;;;;16.17;14.87;;;15.80;99.90;;;;;;5089885;28;20476;-74
2022/09/08 03:45:20;;;;;;;14.63;13.43;;;15.80;99.90;;;;;;5093154;28;20463;-73
2022/09/08 03:48:23;;;;;;;14.77;13.47;;;15.80;99.90;;;;;;5090855;28;20539;-73
2022/09/08 03:51:44;;;;;;;15.53;14.23;;;15.80;99.90;;;;;;5088959;28;20463;-73
2022/09/08 03:55:05;;;;;;;14.40;13.10;;;15.80;99.90;;;;;;5089758;28;20461;-73
2022/09/08 03:58:13;;;;;;;15.27;14.07;;;15.70;99.90;;;;;;5092787;28;20551;-73
2022/09/08 04:01:27;;;;;;;14.50;13.40;;;15.70;99.90;;;;;;5093290;28;20468;-73
2022/09/08 04:04:18;;;;;;;13.80;12.60;;;15.70;99.90;;;;;;5093625;28;20468;-74
2022/09/08 04:07:34;;;;;;;13.57;12.47;;;15.70;99.90;;;;;;5099116;28;20527;-73
2022/09/08 04:10:56;;;;;;;13.63;12.57;;;15.70;99.90;;;;;;5088383;28;20444;-74
2022/09/08 04:14:30;;;;;;;13.53;12.33;;;15.70;99.90;;;;;;5091377;28;20500;-74
2022/09/08 04:17:27;;;;;;;14.23;13.03;;;15.70;99.90;;;;;;5097973;28;20445;-72
2022/09/08 04:20:38;;;;;;;14.13;12.73;;;15.70;99.90;;;;;;5082484;28;21004;-73
2022/09/08 04:23:40;;;;;;;14.43;13.33;;;15.60;99.90;;;;;;5094800;28;20503;-73
2022/09/08 04:26:58;;;;;;;14.20;13.10;;;15.60;99.90;;;;;;5096152;28;20531;-73
2022/09/08 04:30:04;;;;;;;13.67;12.37;;;15.60;99.90;;;;;;5094235;28;20457;-73
2022/09/08 04:37:04;;;;;;;14.17;12.97;;;15.60;99.90;;;;;;5089608;28;20441;-74
2022/09/08 04:39:59;;;;;;;12.97;11.83;;;15.60;99.90;;;;;;5095204;28;20487;-73
2022/09/08 04:43:18;;;;;;;13.37;12.27;;;15.60;99.90;;;;;;5091635;28;20477;-73
2022/09/08 04:46:20;;;;;;;13.77;12.37;;;15.50;99.90;;;;;;5092026;28;20454;-73
2022/09/08 04:49:14;;;;;;;13.10;12.00;;;15.50;99.90;;;;;;5090032;28;20449;-74
2022/09/08 04:55:49;;;;;;;11.77;10.87;;;15.60;99.90;;;;;;5091669;28;20455;-72
2022/09/08 04:58:50;;;;;;;11.83;10.83;;;15.60;99.90;;;;;;5084892;28;20456;-72
2022/09/08 05:01:56;;;;;;;12.33;11.13;;;15.50;99.90;;;;;;5085555;28;20518;-72
2022/09/08 05:04:59;;;;;;;11.40;10.50;;;15.50;99.90;;;;;;5084178;28;20460;-73
2022/09/08 05:08:04;;;;;;;13.27;11.97;;;15.50;99.90;;;;;;5079847;28;20454;-73
2022/09/08 05:11:04;;;;;;;11.80;10.70;;;15.50;99.90;;;;;;5090755;28;20453;-73
2022/09/08 05:14:04;;;;;;;11.63;10.70;;;15.50;99.90;;;;;;5084579;28;20488;-73
2022/09/08 05:17:29;;;;;;;13.43;11.33;;;15.50;99.90;;;;;;5082852;28;20511;-73
2022/09/08 05:20:39;;;;;;;11.70;10.70;;;15.50;99.90;;;;;;5078726;28;21200;-73
2022/09/08 05:23:59;;;;;;;;;;;;;;;;;;;;;
2022/09/08 05:26:54;;;;;;;11.70;10.60;;;15.50;99.90;;;;;;5083016;28;21828;-73
2022/09/08 05:29:55;;;;;;;11.83;10.77;;;15.40;99.90;;;;;;5085241;28;20452;-73
2022/09/08 05:33:09;;;;;;;11.83;10.83;;;15.50;99.90;;;;;;5084260;28;20959;-73
2022/09/08 05:36:28;;;;;;;11.20;10.10;;;15.50;99.90;;;;;;5084678;28;20457;-73
2022/09/08 05:39:31;;;;;;;9.80;9.00;;;15.50;99.90;;;;;;5091834;28;20472;-73
2022/09/08 05:42:42;;;;;;;10.70;9.80;;;15.50;99.90;;;;;;5091502;28;20472;-73
2022/09/08 05:45:50;;;;;;;10.30;9.30;;;15.50;99.90;;;;;;5083589;28;21210;-72
2022/09/08 05:49:05;;;;;;;11.03;10.13;;;15.60;99.90;;;;;;5077987;28;20448;-73
2022/09/08 05:52:15;;;;;;;10.37;9.30;;;15.60;99.90;;;;;;5078884;28;20472;-72
2022/09/08 05:55:30;;;;;;;10.93;9.87;;;15.70;99.90;;;;;;5094808;28;20448;-73
2022/09/08 05:58:38;;;;;;;10.00;9.10;;;15.70;99.90;;;;;;5093502;28;20448;-73
2022/09/08 06:01:48;;;;;;;10.20;9.20;;;15.70;99.90;;;;;;5089579;28;20610;-73
2022/09/08 06:04:46;;;;;;;9.87;9.00;;;15.70;99.90;;;;;;5069329;28;20452;-73
2022/09/08 06:07:36;;;;;;;9.80;9.00;;;15.70;99.90;;;;;;5087672;28;20673;-72
2022/09/08 06:10:37;;;;;;;10.07;9.27;;;15.80;99.90;;;;;;5089312;28;20444;-73
2022/09/08 06:13:29;;;;;;;9.73;8.13;;;15.80;99.90;;;;;;5092363;28;20512;-73
2022/09/08 06:16:18;;;;;;;9.50;8.57;;;15.90;99.90;;;;;;5095198;28;20455;-73
2022/09/08 06:19:06;;;;;;;8.87;7.97;;;15.90;99.90;;;;;;5098311;28;20455;-73
2022/09/08 06:21:57;;;;;;;9.80;8.90;;;16.00;99.90;;;;;;5092259;28;20475;-72
2022/09/08 06:24:48;;;;;;;9.63;8.73;;;16.00;99.90;;;;;;5097729;28;20452;-72
2022/09/08 06:27:47;;;;;;;9.43;8.20;;;16.00;99.90;;;;;;5096743;28;20445;-72
2022/09/08 06:30:36;;;;;;;8.87;8.17;;;16.00;99.90;;;;;;5095019;28;21549;-73
2022/09/08 06:33:46;;;;;;;9.67;8.70;;;16.10;99.90;;;;;;5090822;28;21125;-73
2022/09/08 06:36:42;;;;;;;8.50;7.70;;;16.10;99.90;;;;;;5090816;28;20822;-73
2022/09/08 06:39:41;;;;;;;8.23;7.53;;;16.10;99.90;;;;;;5099101;28;20470;-73
2022/09/08 06:42:36;;;;;;;8.33;7.53;;;16.10;99.90;;;;;;5098653;28;20475;-72
2022/09/08 06:45:26;;;;;;;8.10;7.50;;;16.10;99.90;;;;;;5095836;28;21263;-73
2022/09/08 06:48:24;;;;;;;8.50;7.60;;;16.20;99.90;;;;;;5094902;28;21180;-73
2022/09/08 06:51:22;;;;;;;8.17;7.40;;;16.10;99.90;;;;;;5096096;28;20479;-73
2022/09/08 06:54:25;;;;;;;8.53;7.70;;;16.20;99.90;;;;;;5097214;28;21013;-72
2022/09/08 06:57:27;;;;;;;8.07;7.43;;;16.20;99.90;;;;;;5093369;28;20816;-73
2022/09/08 07:00:29;;;;;;;9.53;6.90;;;16.20;99.90;;;;;;5093823;28;20714;-73
2022/09/08 07:03:28;;;;;;;7.93;7.13;;;16.20;99.90;;;;;;5090578;28;20965;-73
2022/09/08 07:06:25;;;;;;;8.93;7.53;;;16.20;99.90;;;;;;5093031;28;20973;-73
2022/09/08 07:09:21;;;;;;;8.27;7.50;;;16.20;99.90;;;;;;5090836;28;20440;-72
2022/09/08 07:12:28;;;;;;;7.50;6.90;;;16.30;99.90;;;;;;5088333;28;20478;-73
2022/09/08 07:15:34;;;;;;;7.97;7.17;;;16.30;99.90;;;;;;5092470;28;20451;-73
2022/09/08 07:18:28;;;;;;;9.00;6.87;;;16.30;99.90;;;;;;5092908;28;20446;-73
2022/09/08 07:21:29;;;;;;;7.83;7.03;;;16.30;99.90;;;;;;5092975;28;20483;-73
2022/09/08 07:24:22;;;;;;;7.80;7.00;;;16.30;99.90;;;;;;5094456;28;20479;-73
2022/09/08 07:27:14;;;;;;;7.50;6.80;;;16.30;99.90;;;;;;5097594;28;20445;-73
2022/09/08 07:30:05;;;;;;;6.67;6.07;;;16.40;99.90;;;;;;5092012;28;20461;-72
2022/09/08 07:32:59;;;;;;;8.27;6.73;;;16.40;99.90;;;;;;5081609;28;20476;-73
2022/09/08 07:36:12;;;;;;;7.83;7.23;;;16.50;99.90;;;;;;5090320;28;20802;-72
2022/09/08 07:39:13;;;;;;;6.93;6.33;;;16.50;99.90;;;;;;5096622;28;20614;-73
2022/09/08 07:42:14;;;;;;;7.03;6.43;;;16.50;99.90;;;;;;5093868;28;20819;-73
2022/09/08 07:45:12;;;;;;;7.13;6.50;;;16.50;99.90;;;;;;5088962;28;20459;-72
2022/09/08 07:48:06;;;;;;;7.37;6.67;;;16.60;99.90;;;;;;5093795;28;20448;-73
2022/09/08 07:51:04;;;;;;;6.60;6.00;;;16.60;99.90;;;;;;5084935;28;20810;-73
2022/09/08 07:54:29;;;;;;;7.47;6.77;;;16.60;99.90;;;;;;5085336;28;20521;-73
2022/09/08 07:57:26;;;;;;;7.33;6.63;;;16.60;99.90;;;;;;5093723;28;20444;-73
2022/09/08 08:00:37;;;;;;;7.03;6.43;;;16.60;99.90;;;;;;5091601;28;20847;-73
2022/09/08 08:03:54;;;;;;;6.47;5.97;;;16.60;99.90;;;;;;5090518;28;21003;-73
2022/09/08 08:06:50;;;;;;;6.77;6.03;;;16.60;99.90;;;;;;5095424;28;20956;-73
2022/09/08 08:09:48;;;;;;;7.43;6.73;;;16.70;99.90;;;;;;5095545;28;20444;-73
2022/09/08 08:12:46;;;;;;;7.43;6.60;;;16.70;99.90;;;;;;5095279;28;21077;-73
2022/09/08 08:16:02;;;;;;;6.13;5.60;;;16.70;99.90;;;;;;5097183;28;20443;-73
2022/09/08 08:19:05;;;;;;;7.20;6.60;;;16.70;99.90;;;;;;5093629;28;20479;-73
2022/09/08 08:21:58;;;;;;;7.37;6.00;;;16.70;99.90;;;;;;5091926;28;20606;-73
2022/09/08 08:25:06;;;;;;;6.07;5.47;;;16.80;99.90;;;;;;5093943;28;20812;-72
2022/09/08 08:28:16;;;;;;;6.30;5.80;;;16.80;99.90;;;;;;5088044;28;20456;-73
2022/09/08 08:31:16;;;;;;;11.30;5.70;;;16.80;99.90;;;;;;5091497;28;20459;-73
2022/09/08 08:34:11;;;;;;;7.57;5.30;;;16.80;99.90;;;;;;5094991;28;20483;-72
2022/09/08 08:37:03;;;;;;;5.63;5.13;;;16.70;99.90;;;;;;5087370;28;20454;-71
2022/09/08 08:39:53;;;;;;;5.70;5.27;;;16.80;99.90;;;;;;5092571;28;20452;-73
2022/09/08 08:42:55;;;;;;;6.30;5.10;;;16.80;99.90;;;;;;5086712;28;20488;-72
2022/09/08 08:46:00;;;;;;;5.83;5.30;;;16.80;99.90;;;;;;5093937;28;20822;-73
2022/09/08 08:49:03;;;;;;;6.27;5.67;;;16.80;99.90;;;;;;5092853;28;20452;-73
2022/09/08 08:52:04;;;;;;;5.70;5.20;;;16.80;99.90;;;;;;5094273;28;20464;-73
2022/09/08 08:55:08;;;;;;;9.07;5.40;;;16.80;99.90;;;;;;5094965;28;20813;-73
2022/09/08 08:58:10;;;;;;;5.13;4.70;;;16.80;99.90;;;;;;5088305;28;20457;-72
2022/09/08 09:01:44;;;;;;;5.57;5.00;;;16.80;99.90;;;;;;5089888;28;21008;-73
2022/09/08 09:04:59;;;;;;;6.10;5.37;;;16.80;99.90;;;;;;5082608;28;20463;-73
2022/09/08 09:08:17;;;;;;;7.47;4.60;;;16.80;99.90;;;;;;5095134;28;20470;-73
2022/09/08 09:11:30;;;;;;;5.57;5.17;;;16.80;99.90;;;;;;5092922;28;20456;-73
2022/09/08 09:14:47;;;;;;;6.53;4.50;;;16.80;99.90;;;;;;5096543;28;20943;-73
2022/09/08 09:18:36;;;;;;;5.60;5.10;;;16.90;99.90;;;;;;5095057;28;20452;-73
2022/09/08 09:21:42;;;;;;;5.13;4.73;;;16.90;99.90;;;;;;5090714;28;20463;-72
2022/09/08 09:24:39;;;;;;;5.83;4.70;;;16.90;99.90;;;;;;5092604;28;20482;-72
2022/09/08 09:27:41;;;;;;;5.07;4.57;;;17.00;99.90;;;;;;5088794;28;20973;-73
2022/09/08 09:31:06;;;;;;;4.90;4.50;;;17.00;99.90;;;;;;5088003;28;20457;-73
2022/09/08 09:34:30;;;;;;;5.10;4.70;;;17.10;99.90;;;;;;5091794;28;20550;-73
2022/09/08 09:38:05;;;;;;;5.67;4.60;;;17.10;99.90;;;;;;5093742;28;20459;-73
2022/09/08 09:41:05;;;;;;;5.27;4.77;;;17.20;99.90;;;;;;5093537;28;20469;-73
2022/09/08 09:44:13;;;;;;;5.43;4.93;;;17.20;99.90;;;;;;5095767;28;20479;-73
2022/09/08 09:47:17;;;;;;;5.73;4.40;;;17.30;99.90;;;;;;5092080;28;20459;-73
2022/09/08 09:50:43;;;;;;;5.47;4.97;;;17.20;99.90;;;;;;5094457;28;20447;-73
2022/09/08 09:54:00;;;;;;;5.60;5.10;;;17.30;99.90;;;;;;5091630;28;20488;-73
2022/09/08 09:57:15;;;;;;;5.43;4.83;;;17.40;99.90;;;;;;5094317;28;20452;-73
2022/09/08 10:00:21;;;;;;;8.20;5.73;;;17.40;99.90;;;;;;5088556;28;20456;-73
2022/09/08 10:03:48;;;;;;;5.53;5.00;;;17.40;99.90;;;;;;5093003;28;20481;-73
2022/09/08 10:07:08;;;;;;;7.90;5.17;;;17.40;99.90;;;;;;5085758;28;20650;-73
2022/09/08 10:10:26;;;;;;;5.83;5.30;;;17.50;99.90;;;;;;5090416;28;21204;-72
2022/09/08 10:13:49;;;;;;;5.73;5.23;;;17.50;99.90;;;;;;5091050;28;20486;-73
2022/09/08 10:17:20;;;;;;;6.43;4.73;;;17.50;99.90;;;;;;5091511;28;20444;-72
2022/09/08 10:20:47;;;;;;;6.00;4.70;;;17.60;99.90;;;;;;5090655;28;20487;-73
2022/09/08 10:24:16;;;;;;;5.60;5.10;;;17.60;99.90;;;;;;5093903;28;20500;-73
2022/09/08 10:27:39;;;;;;;5.40;4.97;;;17.60;99.90;;;;;;5064312;28;20460;-73
2022/09/08 10:30:59;;;;;;;8.53;5.87;;;17.70;99.90;;;;;;5091588;28;20477;-72
2022/09/08 10:34:25;;;;;;;6.83;5.50;;;17.70;99.90;;;;;;5090991;28;20480;-73
2022/09/08 10:37:35;;;;;;;6.00;5.40;;;17.70;99.90;;;;;;5092661;28;20456;-73
2022/09/08 10:40:37;;;;;;;5.80;5.20;;;17.70;99.90;;;;;;5091587;28;20487;-75
2022/09/08 10:43:59;;;;;;;8.60;5.93;;;17.70;99.90;;;;;;5085819;28;20483;-75
2022/09/08 10:47:29;;;;;;;7.13;5.60;;;17.70;99.90;;;;;;5094514;28;20466;-75
2022/09/08 10:50:22;;;;;;;6.23;5.63;;;17.70;99.90;;;;;;5095508;28;20452;-75
2022/09/08 10:53:43;;;;;;;7.00;5.87;;;17.70;99.90;;;;;;5093510;28;20472;-74
2022/09/08 10:56:33;;;;;;;6.20;5.33;;;17.60;99.90;;;;;;5090921;28;21009;-74
2022/09/08 10:59:50;;;;;;;8.23;7.40;;;17.60;99.90;;;;;;5091035;28;20453;-74
2022/09/08 11:03:06;;;;;;;10.37;8.20;;;17.50;99.90;;;;;;5090692;28;20495;-74
2022/09/08 11:06:06;;;;;;;8.03;7.23;;;17.40;99.90;;;;;;5085927;28;22658;-74
2022/09/08 11:09:17;;;;;;;11.30;8.43;;;17.20;99.90;;;;;;5092459;28;20479;-75
2022/09/08 11:12:26;;;;;;;8.13;7.40;;;17.10;99.90;;;;;;5088984;28;20468;-74
2022/09/08 11:15:43;;;;;;;8.03;7.33;;;17.00;99.90;;;;;;5074781;28;20821;-75
2022/09/08 11:18:43;;;;;;;9.03;8.13;;;16.90;99.90;;;;;;5092504;28;20576;-75
2022/09/08 11:21:40;;;;;;;8.53;7.67;;;16.80;99.90;;;;;;5092222;28;20457;-75
2022/09/08 11:24:39;;;;;;;8.37;7.60;;;16.70;99.90;;;;;;5085130;28;20453;-75
2022/09/08 11:27:40;;;;;;;11.33;8.33;;;16.70;99.90;;;;;;5085471;28;20464;-75
2022/09/08 11:30:40;;;;;;;9.00;8.20;;;16.60;99.90;;;;;;5087073;28;20456;-74
2022/09/08 11:33:49;;;;;;;8.87;8.07;;;16.60;99.90;;;;;;5093676;28;20481;-74
2022/09/08 11:37:00;;;;;;;9.00;8.23;;;16.60;99.90;;;;;;5079701;28;20944;-73
2022/09/08 11:40:05;;;;;;;9.40;8.60;;;16.60;99.90;;;;;;5081605;28;23165;-72
2022/09/08 11:43:24;;;;;;;8.83;8.03;;;16.60;99.90;;;;;;5089528;28;22009;-73
2022/09/08 11:46:42;;;;;;;9.20;8.30;;;16.50;99.90;;;;;;5090359;28;20453;-73
2022/09/08 11:50:03;;;;;;;8.80;8.10;;;16.50;99.90;;;;;;5094688;28;20456;-73
2022/09/08 11:53:38;;;;;;;8.93;8.23;;;16.50;99.90;;;;;;5079001;28;20701;-73
2022/09/08 11:57:19;;;;;;;9.17;8.10;;;16.50;99.90;;;;;;5092198;28;20439;-74
2022/09/08 12:00:20;;;;;;;9.80;8.80;;;16.40;99.90;;;;;;5088364;28;20520;-76
2022/09/08 12:03:50;;;;;;;10.30;9.40;;;16.50;99.90;;;;;;5087612;28;20483;-75
2022/09/08 12:07:10;;;;;;;9.10;8.40;;;16.50;99.90;;;;;;5090025;28;20456;-76
2022/09/08 12:10:33;;;;;;;10.00;9.00;;;16.40;99.90;;;;;;5091645;28;20456;-76
2022/09/08 12:13:29;;;;;;;9.83;8.87;;;16.50;99.90;;;;;;5086132;28;20864;-76
2022/09/08 12:16:46;;;;;;;9.30;8.40;;;16.50;99.90;;;;;;5082069;28;20979;-75
2022/09/08 12:19:50;;;;;;;9.70;8.70;;;16.50;99.90;;;;;;5089006;28;20449;-75
2022/09/08 12:22:55;;;;;;;10.40;9.60;;;16.50;99.90;;;;;;5091628;28;20471;-75
2022/09/08 12:26:29;;;;;;;10.40;9.50;;;16.50;99.90;;;;;;5089658;28;20789;-75
2022/09/08 12:29:52;;;;;;;10.97;9.87;;;16.50;99.90;;;;;;5095403;28;20449;-75
2022/09/08 12:33:01;;;;;;;9.63;8.83;;;16.40;99.90;;;;;;5092929;28;20473;-76
2022/09/08 12:36:01;;;;;;;10.43;9.33;;;16.40;99.90;;;;;;5089686;28;20457;-75
2022/09/08 12:39:24;;;;;;;9.93;9.17;;;16.40;99.90;;;;;;5090714;28;20464;-75
2022/09/08 12:42:39;;;;;;;10.27;9.17;;;16.40;99.90;;;;;;5083391;28;21016;-75
2022/09/08 12:45:48;;;;;;;10.50;9.57;;;16.40;99.90;;;;;;5078663;28;20449;-74
2022/09/08 12:48:52;;;;;;;10.17;9.33;;;16.30;99.90;;;;;;5077665;28;20453;-75
2022/09/08 12:51:40;;;;;;;13.23;8.97;;;16.30;99.90;;;;;;5082778;28;20483;-75
2022/09/08 12:54:46;;;;;;;10.73;9.93;;;16.40;99.90;;;;;;5079850;28;20968;-75
2022/09/08 12:57:55;;;;;;;11.03;10.03;;;16.30;99.90;;;;;;5075717;28;20493;-74
2022/09/08 13:00:55;;;;;;;12.30;9.63;;;16.30;99.90;;;;;;5080415;28;20483;-75
2022/09/08 13:03:44;;;;;;;11.27;10.37;;;16.30;99.90;;;;;;5076955;28;20851;-74
2022/09/08 13:07:00;;;;;;;11.03;9.90;;;16.30;99.90;;;;;;5078658;28;20964;-75
2022/09/08 13:10:14;;;;;;;10.97;10.10;;;16.30;99.90;;;;;;5089401;28;20544;-74
2022/09/08 13:13:32;;;;;;;9.83;9.03;;;16.30;99.90;;;;;;5092798;28;20484;-75
2022/09/08 13:16:40;;;;;;;9.63;8.93;;;16.20;99.90;;;;;;5084782;28;20457;-75
2022/09/08 13:19:47;;;;;;;9.77;8.77;;;16.20;99.90;;;;;;5084393;28;20449;-75
2022/09/08 13:22:47;;;;;;;10.60;9.73;;;16.20;99.90;;;;;;5083606;28;20969;-74
2022/09/08 13:25:46;;;;;;;11.10;10.10;;;16.20;99.90;;;;;;5086565;28;20548;-75
2022/09/08 13:29:09;;;;;;;;;;;;;;;;;;;;;
2022/09/08 13:32:37;;;;;;;10.33;9.53;;;16.20;99.90;;;;;;5092553;28;20557;-75
2022/09/08 13:35:47;;;;;;;10.47;9.33;;;16.20;99.90;;;;;;5092461;28;21035;-75
2022/09/08 13:38:54;;;;;;;10.37;9.60;;;16.20;99.90;;;;;;5087900;28;20453;-74
2022/09/08 13:42:08;;;;;;;10.23;9.40;;;16.20;99.90;;;;;;5090622;28;20487;-75
2022/09/08 13:45:35;;;;;;;9.67;8.77;;;16.20;99.90;;;;;;5093509;28;20464;-74
2022/09/08 13:49:06;;;;;;;8.00;7.40;;;16.10;99.90;;;;;;5094716;28;20546;-73
2022/09/08 13:52:18;;;;;;;8.90;8.10;;;16.10;99.90;;;;;;5088397;28;20856;-73
2022/09/08 13:55:28;;;;;;;7.67;7.07;;;16.10;99.90;;;;;;5091988;28;20463;-73
2022/09/08 13:58:34;;;;;;;10.87;7.53;;;16.10;99.90;;;;;;5091505;28;20447;-73
2022/09/08 14:01:45;;;;;;;9.70;7.60;;;16.00;99.90;;;;;;5086773;28;20561;-73
2022/09/08 14:04:41;;;;;;;7.47;6.67;;;16.00;99.90;;;;;;5089775;28;20476;-73
2022/09/08 14:07:36;;;;;;;6.70;6.20;;;16.00;99.90;;;;;;5093094;28;20445;-72
2022/09/08 14:10:52;;;;;;;7.30;6.70;;;16.00;99.90;;;;;;5089540;28;20524;-73
2022/09/08 14:13:49;;;;;;;7.33;6.80;;;16.00;99.90;;;;;;5089899;28;20477;-73
2022/09/08 14:16:41;;;;;;;7.27;6.67;;;16.00;99.90;;;;;;5080707;28;20460;-73
2022/09/08 14:19:46;;;;;;;7.00;6.50;;;16.00;99.90;;;;;;5084653;28;20557;-73
2022/09/08 14:22:51;;;;;;;6.27;5.87;;;16.00;99.90;;;;;;5083595;28;20480;-75
2022/09/08 14:25:42;;;;;;;6.50;6.00;;;15.90;99.90;;;;;;5090412;28;20455;-73
2022/09/08 14:28:36;;;;;;;6.67;6.03;;;15.90;99.90;;;;;;5090899;28;20824;-75
2022/09/08 14:31:32;;;;;;;6.50;6.10;;;15.90;99.90;;;;;;5095548;28;21003;-75
2022/09/08 14:34:31;;;;;;;7.60;6.90;;;15.90;99.90;;;;;;5097700;28;20476;-75
2022/09/08 14:37:28;;;;;;;5.83;5.33;;;15.90;99.90;;;;;;5091561;28;20441;-75
2022/09/08 14:40:23;;;;;;;6.13;5.73;;;15.90;99.90;;;;;;5078996;28;20997;-74
2022/09/08 14:43:39;;;;;;;5.43;4.93;;;15.90;99.90;;;;;;5092236;28;20480;-75
2022/09/08 14:46:50;;;;;;;6.03;5.37;;;15.90;99.90;;;;;;5101181;28;20451;-75
2022/09/08 14:50:10;;;;;;;5.40;5.00;;;15.90;99.90;;;;;;5095856;28;20447;-75
2022/09/08 14:53:26;;;;;;;5.70;5.30;;;15.90;99.90;;;;;;5092178;28;20590;-73
2022/09/08 14:56:27;;;;;;;5.83;5.33;;;15.90;99.90;;;;;;5084804;28;20505;-73
2022/09/08 14:59:31;;;;;;;5.40;4.93;;;15.90;99.90;;;;;;5086908;28;20459;-73
2022/09/08 15:02:30;;;;;;;4.40;4.10;;;15.90;99.90;;;;;;5085415;28;20864;-72
2022/09/08 15:05:23;;;;;;;4.77;4.40;;;15.90;99.90;;;;;;5090171;28;20487;-72
2022/09/08 15:08:16;;;;;;;4.70;4.40;;;;;;;;;;5088505;28;20460;-75
2022/09/08 15:11:10;;;;;;;4.60;4.20;;;;;;;;;;5087928;28;21037;-74
2022/09/08 15:14:11;;;;;;;5.67;5.17;;;15.90;99.90;;;;;;5088961;28;20551;-75
2022/09/08 15:17:07;;;;;;;4.50;4.23;;;15.80;99.90;;;;;;5095459;28;20457;-75
2022/09/08 15:20:09;;;;;;;5.63;5.00;;;15.80;99.90;;;;;;5086596;28;20460;-75
2022/09/08 15:23:23;;;;;;;5.17;4.77;;;15.80;99.90;;;;;;5085982;28;20482;-74
2022/09/08 15:26:30;;;;;;;4.73;4.40;;;15.80;99.90;;;;;;5085152;28;20447;-74
2022/09/08 15:29:49;;;;;;;4.17;3.93;;;15.80;99.90;;;;;;5085286;28;20457;-74
2022/09/08 15:32:50;;;;;;;4.17;3.87;;;15.80;99.90;;;;;;5089290;28;21022;-75
2022/09/08 15:36:05;;;;;;;4.47;4.17;;;15.80;99.90;;;;;;5082155;28;20445;-74
2022/09/08 15:39:03;;;;;;;4.57;4.27;;;15.80;99.90;;;;;;5086445;28;20457;-73
2022/09/08 15:42:10;;;;;;;4.40;4.10;;;15.80;99.90;;;;;;5090664;28;20477;-74
2022/09/08 15:45:12;;;;;;;4.70;4.30;;;15.70;99.90;;;;;;5093309;28;20473;-74
2022/09/08 15:48:18;;;;;;;4.20;3.90;;;15.70;99.90;;;;;;5068282;28;20457;-74
2022/09/08 15:51:17;;;;;;;4.60;4.30;;;15.70;99.90;;;;;;5076512;28;20836;-75
2022/09/08 15:54:19;;;;;;;4.77;4.47;;;15.70;99.90;;;;;;5086356;28;20482;-74
2022/09/08 15:57:42;;;;;;;4.57;4.27;;;15.70;99.90;;;;;;5084754;28;20467;-75
2022/09/08 16:00:48;;;;;;;4.63;4.33;;;15.60;99.90;;;;;;5086599;28;20466;-74
2022/09/08 16:03:45;;;;;;;4.53;4.23;;;15.70;99.90;;;;;;5093090;28;20483;-75
2022/09/08 16:06:49;;;;;;;4.60;4.30;;;15.70;99.90;;;;;;5085455;28;20460;-75
2022/09/08 16:10:04;;;;;;;4.33;4.03;;;15.70;99.90;;;;;;5092040;28;20463;-75
2022/09/08 16:12:58;;;;;;;4.87;4.47;;;15.70;99.90;;;;;;5089055;28;20480;-74
2022/09/08 16:15:50;;;;;;;4.33;4.03;;;15.60;99.90;;;;;;5084393;28;20437;-74
2022/09/08 16:18:46;;;;;;;4.17;3.90;;;15.60;99.90;;;;;;5088479;28;20831;-74
2022/09/08 16:21:41;;;;;;;4.07;3.83;;;15.60;99.90;;;;;;5080158;28;20487;-73
2022/09/08 16:24:46;;;;;;;4.30;3.97;;;15.60;99.90;;;;;;5083714;28;20460;-73
2022/09/08 16:28:21;;;;;;;4.00;3.80;;;15.60;99.90;;;;;;5082632;28;20457;-75
2022/09/08 16:31:24;;;;;;;4.23;3.93;;;15.60;99.90;;;;;;5076282;28;20473;-74
2022/09/08 16:34:28;;;;;;;4.67;4.37;;;15.50;99.90;;;;;;5072323;28;20653;-73
2022/09/08 16:37:25;;;;;;;5.37;4.97;;;15.50;99.90;;;;;;5078818;28;20455;-74
2022/09/08 16:40:17;;;;;;;6.73;6.30;;;15.60;99.90;;;;;;5077857;28;20472;-73
2022/09/08 16:43:19;;;;;;;6.97;6.30;;;15.50;99.90;;;;;;5088938;28;21358;-75
2022/09/08 16:46:23;;;;;;;6.50;6.00;;;15.50;99.90;;;;;;5078893;28;20472;-74
2022/09/08 16:49:29;;;;;;;6.50;5.90;;;15.50;99.90;;;;;;5082103;28;20547;-73
2022/09/08 16:52:27;;;;;;;5.80;5.40;;;15.50;99.90;;;;;;5087600;28;20476;-73
2022/09/08 16:55:32;;;;;;;5.63;5.23;;;15.50;99.90;;;;;;5081501;28;20705;-73
2022/09/08 16:58:31;;;;;;;5.70;5.30;;;15.50;99.90;;;;;;5083947;28;20445;-73
2022/09/08 17:01:31;;;;;;;4.93;4.63;;;15.50;99.90;;;;;;5078495;28;20505;-72
2022/09/08 17:04:41;;;;;;;5.60;5.20;;;15.50;99.90;;;;;;5075301;28;20461;-73